createdAt,value
2022-11-14T00:01:33.123Z,0.70
2022-11-14T00:04:02.833Z,0.73
2022-11-14T00:06:31.157Z,0.80
2022-11-14T00:08:59.458Z,1.00
2022-11-14T00:11:27.819Z,0.85
2022-11-14T00:13:56.099Z,0.85
2022-11-14T00:16:24.589Z,0.90
2022-11-14T00:18:52.907Z,1.00
2022-11-14T00:21:22.663Z,0.93
2022-11-14T00:23:50.949Z,0.80
2022-11-14T00:26:19.375Z,0.60
2022-11-14T00:28:47.688Z,0.80
2022-11-14T00:31:16.041Z,0.80
2022-11-14T00:33:44.373Z,0.82
2022-11-14T00:36:12.745Z,1.10
2022-11-14T00:38:42.908Z,0.90
2022-11-14T00:41:11.240Z,0.80
2022-11-14T00:43:39.511Z,0.70
2022-11-14T00:46:08.139Z,0.60
2022-11-14T00:48:36.449Z,0.60
2022-11-14T00:51:04.851Z,0.80
2022-11-14T00:53:33.351Z,0.80
2022-11-14T00:56:03.115Z,0.60
2022-11-14T00:58:31.800Z,0.82
2022-11-14T01:01:00.461Z,0.85
2022-11-14T01:03:28.824Z,0.70
2022-11-14T01:05:57.136Z,0.60
2022-11-14T01:08:25.465Z,0.80
2022-11-14T01:10:53.749Z,0.75
2022-11-14T01:13:23.913Z,0.80
2022-11-14T01:15:52.263Z,0.70
2022-11-14T01:18:22.556Z,1.00
2022-11-14T01:20:51.147Z,0.90
2022-11-14T01:23:19.821Z,1.00
2022-11-14T01:25:48.174Z,0.90
2022-11-14T01:28:18.927Z,1.00
2022-11-14T01:30:48.863Z,0.75
2022-11-14T01:33:17.192Z,0.85
2022-11-14T01:35:45.683Z,0.85
2022-11-14T01:38:15.659Z,1.05
2022-11-14T01:40:46.604Z,0.80
2022-11-14T01:43:28.997Z,1.10
2022-11-14T01:46:01.721Z,1.00
2022-11-14T01:48:36.977Z,1.48
2022-11-14T01:51:14.159Z,1.48
2022-11-14T01:53:43.253Z,1.13
2022-11-14T01:56:15.732Z,1.40
2022-11-14T01:58:47.999Z,0.97
2022-11-14T02:01:17.860Z,1.05
2022-11-14T02:03:49.734Z,0.90
2022-11-14T02:06:21.753Z,0.80
2022-11-14T02:08:52.329Z,0.80
2022-11-14T02:11:20.652Z,0.80
2022-11-14T02:13:49.042Z,0.80
2022-11-14T02:16:19.222Z,0.90
2022-11-14T02:18:47.593Z,0.70
2022-11-14T02:21:17.444Z,0.95
2022-11-14T02:23:45.836Z,0.77
2022-11-14T02:26:14.264Z,0.80
2022-11-14T02:28:42.542Z,0.87
2022-11-14T02:31:10.778Z,0.90
2022-11-14T02:33:39.087Z,0.77
2022-11-14T02:36:08.285Z,0.80
2022-11-14T02:38:38.458Z,0.90
2022-11-14T02:41:07.041Z,0.95
2022-11-14T02:43:35.525Z,0.87
2022-11-14T02:46:05.823Z,0.70
2022-11-14T02:48:35.010Z,0.90
2022-11-14T02:51:03.318Z,1.13
2022-11-14T02:53:31.619Z,0.85
2022-11-14T02:56:01.422Z,0.90
2022-11-14T02:58:30.313Z,0.93
2022-11-14T03:01:19.860Z,1.08
2022-11-14T03:03:47.192Z,0.93
2022-11-14T03:06:15.459Z,1.10
2022-11-14T03:08:43.852Z,1.05
2022-11-14T03:11:13.721Z,0.90
2022-11-14T03:13:42.247Z,0.90
2022-11-14T03:16:13.197Z,1.25
2022-11-14T03:18:42.147Z,0.82
2022-11-14T03:21:11.738Z,1.05
2022-11-14T03:23:40.629Z,1.33
2022-11-14T03:26:11.422Z,1.23
2022-11-14T03:28:42.409Z,1.02
2022-11-14T03:31:13.660Z,1.13
2022-11-14T03:33:42.182Z,1.37
2022-11-14T03:36:10.829Z,1.20
2022-11-14T03:38:39.195Z,1.48
2022-11-14T03:41:07.586Z,1.60
2022-11-14T03:43:35.897Z,1.38
2022-11-14T03:46:05.973Z,1.27
2022-11-14T03:48:34.367Z,1.65
2022-11-14T03:51:02.734Z,1.60
2022-11-14T03:53:31.079Z,1.63
2022-11-14T03:56:00.182Z,1.55
2022-11-14T03:58:29.120Z,1.50
2022-11-14T04:00:57.783Z,1.58
2022-11-14T04:03:27.660Z,1.70
2022-11-14T04:05:56.108Z,1.63
2022-11-14T04:08:24.458Z,1.70
2022-11-14T04:10:52.811Z,1.77
2022-11-14T04:13:21.090Z,1.70
2022-11-14T04:15:55.199Z,2.22
2022-11-14T04:18:23.886Z,1.88
2022-11-14T04:20:54.212Z,1.52
2022-11-14T04:23:22.481Z,1.77
2022-11-14T04:25:51.009Z,1.80
2022-11-14T04:28:19.356Z,1.90
2022-11-14T04:30:47.742Z,2.10
2022-11-14T04:33:16.062Z,2.13
2022-11-14T04:35:44.348Z,2.13
2022-11-14T04:38:14.305Z,2.00
2022-11-14T04:40:42.727Z,2.22
2022-11-14T04:43:11.167Z,2.40
2022-11-14T04:45:39.702Z,2.25
2022-11-14T04:48:08.124Z,2.03
2022-11-14T04:50:36.445Z,2.10
2022-11-14T04:53:05.197Z,2.20
2022-11-14T04:55:34.959Z,2.20
2022-11-14T04:58:03.396Z,2.38
2022-11-14T05:00:31.762Z,2.23
2022-11-14T05:03:00.976Z,1.98
2022-11-14T05:05:29.448Z,1.90
2022-11-14T05:07:57.834Z,1.87
2022-11-14T05:10:26.209Z,1.60
2022-11-14T05:12:56.594Z,1.95
2022-11-14T05:15:25.117Z,1.65
2022-11-14T05:17:53.491Z,1.88
2022-11-14T05:20:21.920Z,1.75
2022-11-14T05:22:54.518Z,1.60
2022-11-14T05:25:23.144Z,1.77
2022-11-14T05:27:51.411Z,1.53
2022-11-14T05:30:21.388Z,1.95
2022-11-14T05:32:49.692Z,1.70
2022-11-14T05:35:18.030Z,1.90
2022-11-14T05:37:46.340Z,2.27
2022-11-14T05:40:17.058Z,2.50
2022-11-14T05:42:45.367Z,2.20
2022-11-14T05:45:13.708Z,2.20
2022-11-14T05:47:43.488Z,2.63
2022-11-14T05:50:12.466Z,2.15
2022-11-14T05:52:40.792Z,2.13
2022-11-14T05:55:09.900Z,2.10
2022-11-14T05:57:38.232Z,2.40
2022-11-14T06:00:07.517Z,2.10
2022-11-14T06:02:36.000Z,1.90
2022-11-14T06:05:06.277Z,1.40
2022-11-14T06:07:34.640Z,1.42
2022-11-14T06:10:03.298Z,1.57
2022-11-14T06:12:33.467Z,1.55
2022-11-14T06:15:01.737Z,1.70
2022-11-14T06:17:30.057Z,1.52
2022-11-14T06:19:58.499Z,1.60
2022-11-14T06:22:28.477Z,1.53
2022-11-14T06:24:57.166Z,1.40
2022-11-14T06:27:25.543Z,1.55
2022-11-14T06:29:53.860Z,1.30
2022-11-14T06:32:22.454Z,1.30
2022-11-14T06:34:50.824Z,1.90
2022-11-14T06:37:19.246Z,1.73
2022-11-14T06:39:48.944Z,1.50
2022-11-14T06:42:17.868Z,1.77
2022-11-14T06:44:46.316Z,1.50
2022-11-14T06:47:14.682Z,1.60
2022-11-14T06:49:42.997Z,1.50
2022-11-14T06:52:11.488Z,1.60
2022-11-14T06:54:39.870Z,1.65
2022-11-14T06:57:09.725Z,1.58
2022-11-14T06:59:38.266Z,1.50
2022-11-14T07:02:06.805Z,1.77
2022-11-14T07:04:35.442Z,2.05
2022-11-14T07:07:03.858Z,1.60
2022-11-14T07:09:32.239Z,1.65
2022-11-14T07:12:00.674Z,2.00
2022-11-14T07:14:30.742Z,1.80
2022-11-14T07:17:00.868Z,2.00
2022-11-14T07:19:29.399Z,2.10
2022-11-14T07:21:57.671Z,2.10
2022-11-14T07:24:26.416Z,1.95
2022-11-14T07:26:55.208Z,2.42
2022-11-14T07:29:23.635Z,2.58
2022-11-14T07:31:53.441Z,2.60
2022-11-14T07:34:21.728Z,1.90
2022-11-14T07:36:51.232Z,2.17
2022-11-14T07:39:19.500Z,1.80
2022-11-14T07:41:47.847Z,1.50
2022-11-14T07:44:16.168Z,1.20
2022-11-14T07:46:45.303Z,1.10
2022-11-14T07:49:15.275Z,1.15
2022-11-14T07:51:43.661Z,1.00
2022-11-14T07:54:13.422Z,0.88
2022-11-14T07:56:41.897Z,1.23
2022-11-14T07:59:10.388Z,0.70
2022-11-14T08:01:38.870Z,0.88
2022-11-14T08:04:07.304Z,0.95
2022-11-14T08:06:37.061Z,0.85
2022-11-14T08:09:05.719Z,0.70
2022-11-14T08:11:49.129Z,1.40
2022-11-14T08:14:17.953Z,1.10
2022-11-14T08:16:46.351Z,0.80
2022-11-14T08:19:16.787Z,1.10
2022-11-14T08:21:46.891Z,0.70
2022-11-14T08:24:15.337Z,0.97
2022-11-14T08:26:44.021Z,1.05
2022-11-14T08:29:13.064Z,1.00
2022-11-14T08:31:41.441Z,1.13
2022-11-14T08:34:09.973Z,0.90
2022-11-14T08:36:38.360Z,1.00
2022-11-14T08:39:08.271Z,1.10
2022-11-14T08:41:36.753Z,0.98
2022-11-14T08:44:05.669Z,0.77
2022-11-14T08:46:34.218Z,0.80
2022-11-14T08:49:02.557Z,0.70
2022-11-14T08:51:32.106Z,0.80
2022-11-14T08:54:00.558Z,1.05
2022-11-14T08:56:31.484Z,1.20
2022-11-14T08:58:59.868Z,1.00
2022-11-14T09:01:28.398Z,1.73
2022-11-14T09:04:00.013Z,2.40
2022-11-14T09:06:29.212Z,2.65
2022-11-14T09:08:57.848Z,2.55
2022-11-14T09:11:26.224Z,1.80
2022-11-14T09:13:56.073Z,1.45
2022-11-14T09:16:24.570Z,1.60
2022-11-14T09:18:53.159Z,1.13
2022-11-14T09:21:21.585Z,1.20
2022-11-14T09:23:50.469Z,0.90
2022-11-14T09:26:19.643Z,1.00
2022-11-14T09:28:50.361Z,1.30
2022-11-14T09:31:20.285Z,1.60
2022-11-14T09:33:48.865Z,1.23
2022-11-14T09:36:18.771Z,1.00
2022-11-14T09:38:47.874Z,1.10
2022-11-14T09:41:27.146Z,1.50
2022-11-14T09:44:20.839Z,1.17
2022-11-14T09:46:54.875Z,1.00
2022-11-14T09:49:30.948Z,0.90
2022-11-14T09:52:04.798Z,0.80
2022-11-14T09:54:44.301Z,1.00
2022-11-14T09:57:17.841Z,1.02
2022-11-14T09:59:46.487Z,1.13
2022-11-14T10:02:41.529Z,1.00
2022-11-14T10:05:33.034Z,0.80
2022-11-14T10:08:16.037Z,0.70
2022-11-14T10:10:53.320Z,1.13
2022-11-14T10:13:44.994Z,1.20
2022-11-14T10:16:20.951Z,1.10
2022-11-14T10:19:05.152Z,0.80
2022-11-14T10:22:06.614Z,0.90
2022-11-14T10:24:51.599Z,0.93
2022-11-14T10:27:24.160Z,1.00
2022-11-14T10:30:05.868Z,0.98
2022-11-14T10:32:51.893Z,0.80
2022-11-14T10:35:34.835Z,0.75
2022-11-14T10:38:12.514Z,0.73
2022-11-14T10:40:43.663Z,0.70
2022-11-14T10:43:23.914Z,0.85
2022-11-14T10:45:55.835Z,0.88
2022-11-14T10:48:32.588Z,0.80
2022-11-14T10:51:07.845Z,0.90
2022-11-14T10:53:48.211Z,0.80
2022-11-14T10:56:16.590Z,0.90
2022-11-14T10:58:48.775Z,0.77
2022-11-14T11:01:37.967Z,1.08
2022-11-14T11:04:21.807Z,0.73
2022-11-14T11:06:53.851Z,1.15
2022-11-14T11:09:45.405Z,1.10
2022-11-14T11:12:18.241Z,1.13
2022-11-14T11:14:48.667Z,0.80
2022-11-14T11:17:21.045Z,1.02
2022-11-14T11:19:50.501Z,0.88
2022-11-14T11:22:30.494Z,1.10
2022-11-14T11:24:58.831Z,1.63
2022-11-14T11:27:29.353Z,1.55
2022-11-14T11:30:19.134Z,2.00
2022-11-14T11:32:47.783Z,2.22
2022-11-14T11:35:17.944Z,1.15
2022-11-14T11:37:54.867Z,0.93
2022-11-14T11:40:26.592Z,1.27
2022-11-14T11:43:37.170Z,1.27
2022-11-14T11:45:50.899Z,0.98
2022-11-14T11:48:21.315Z,1.48
2022-11-14T11:50:50.070Z,1.40
2022-11-14T11:53:25.697Z,1.05
2022-11-14T11:56:00.745Z,1.57
2022-11-14T11:58:34.037Z,0.90
2022-11-14T12:01:02.513Z,0.80
2022-11-14T12:03:31.271Z,1.42
2022-11-14T12:06:11.780Z,1.48
2022-11-14T12:08:54.036Z,1.20
2022-11-14T12:11:26.646Z,0.90
2022-11-14T12:14:11.480Z,0.70
2022-11-14T12:17:14.710Z,0.60
2022-11-14T12:19:58.153Z,0.80
2022-11-14T12:22:50.690Z,0.65
2022-11-14T12:25:54.264Z,0.68
2022-11-14T12:29:00.012Z,0.60
2022-11-14T12:31:30.651Z,0.40
2022-11-14T12:34:02.150Z,0.70
2022-11-14T12:36:32.790Z,0.57
2022-11-14T12:39:02.788Z,0.55
2022-11-14T12:41:35.583Z,0.77
2022-11-14T12:44:21.517Z,0.55
2022-11-14T12:47:18.100Z,0.70
2022-11-14T12:50:03.638Z,0.70
2022-11-14T12:52:56.842Z,0.77
2022-11-14T12:55:58.010Z,0.60
2022-11-14T12:58:52.649Z,0.63
2022-11-14T13:01:41.559Z,0.60
2022-11-14T13:04:24.437Z,0.50
2022-11-14T13:07:10.601Z,0.63
2022-11-14T13:10:05.210Z,0.40
2022-11-14T13:12:52.480Z,0.40
2022-11-14T13:15:48.947Z,0.47
2022-11-14T13:18:41.954Z,0.47
2022-11-14T13:21:45.052Z,0.70
2022-11-14T13:24:16.273Z,0.37
2022-11-14T13:26:55.869Z,0.30
2022-11-14T13:29:58.304Z,0.30
2022-11-14T13:32:55.413Z,0.40
2022-11-14T13:35:33.307Z,0.40
2022-11-14T13:38:25.861Z,0.38
2022-11-14T13:41:06.216Z,0.20
2022-11-14T13:43:48.881Z,0.17
2022-11-14T13:46:29.539Z,0.38
2022-11-14T13:49:18.364Z,0.40
2022-11-14T13:51:47.862Z,0.20
2022-11-14T13:54:18.597Z,0.60
2022-11-14T13:56:58.194Z,0.40
2022-11-14T13:59:50.072Z,0.60
2022-11-14T14:02:39.247Z,0.30
2022-11-14T14:05:22.161Z,0.60
2022-11-14T14:08:03.297Z,0.40
2022-11-14T14:10:40.412Z,0.32
2022-11-14T14:13:24.165Z,0.38
2022-11-14T14:16:01.969Z,0.40
2022-11-14T14:18:44.364Z,0.30
2022-11-14T14:21:25.604Z,0.40
2022-11-14T14:24:05.554Z,0.30
2022-11-14T14:26:43.408Z,0.50
2022-11-14T14:29:24.647Z,0.50
2022-11-14T14:31:53.217Z,0.50
2022-11-14T14:34:26.385Z,0.50
2022-11-14T14:36:57.963Z,0.40
2022-11-14T14:39:27.976Z,0.30
2022-11-14T14:41:59.072Z,0.30
2022-11-14T14:44:29.925Z,0.40
2022-11-14T14:46:58.671Z,0.50
2022-11-14T14:49:31.635Z,0.50
2022-11-14T14:52:01.549Z,0.53
2022-11-14T14:54:31.173Z,0.40
2022-11-14T14:57:02.744Z,0.30
2022-11-14T14:59:32.351Z,0.40
2022-11-14T15:02:01.465Z,0.22
2022-11-14T15:04:31.137Z,0.30
2022-11-14T15:07:01.227Z,0.60
2022-11-14T15:09:31.778Z,0.60
2022-11-14T15:12:03.560Z,0.50
2022-11-14T15:14:35.824Z,0.47
2022-11-14T15:17:05.842Z,0.50
2022-11-14T15:19:41.389Z,0.45
2022-11-14T15:22:25.537Z,0.60
2022-11-14T15:25:21.916Z,0.90
2022-11-14T15:27:53.378Z,0.30
2022-11-14T15:30:25.850Z,0.70
2022-11-14T15:32:56.232Z,0.70
2022-11-14T15:35:33.713Z,0.65
2022-11-14T15:41:24.039Z,0.53
2022-11-14T15:43:55.411Z,0.60
2022-11-14T15:46:43.624Z,0.50
2022-11-14T15:49:24.002Z,0.50
2022-11-14T15:51:55.393Z,0.60
2022-11-14T15:54:30.636Z,0.60
2022-11-14T15:57:00.860Z,0.70
2022-11-14T15:59:31.283Z,0.63
2022-11-14T16:02:04.529Z,0.70
2022-11-14T16:04:35.472Z,0.40
2022-11-14T16:07:04.328Z,0.60
2022-11-14T16:09:34.173Z,0.75
2022-11-14T16:12:02.595Z,0.67
2022-11-14T16:14:31.030Z,0.80
2022-11-14T16:16:59.509Z,0.70
2022-11-14T16:19:27.901Z,0.50
2022-11-14T16:21:59.364Z,0.90
2022-11-14T16:24:32.546Z,0.80
2022-11-14T16:27:04.003Z,0.97
2022-11-14T16:29:32.622Z,0.57
2022-11-14T16:32:01.059Z,1.02
2022-11-14T16:34:29.440Z,0.90
2022-11-14T16:37:03.403Z,0.60
2022-11-14T16:39:32.140Z,0.70
2022-11-14T16:42:04.158Z,0.90
2022-11-14T16:44:39.336Z,0.95
2022-11-14T16:47:20.363Z,0.95
2022-11-14T16:49:48.992Z,0.90
2022-11-14T16:52:17.375Z,0.80
2022-11-14T16:54:45.814Z,1.08
2022-11-14T16:57:15.626Z,1.17
2022-11-14T16:59:43.949Z,1.30
2022-11-14T17:02:16.207Z,1.20
2022-11-14T17:04:45.471Z,1.23
2022-11-14T17:07:16.732Z,1.45
2022-11-14T17:09:48.994Z,1.42
2022-11-14T17:12:18.746Z,1.23
2022-11-14T17:14:47.058Z,1.13
2022-11-14T17:17:15.620Z,1.52
2022-11-14T17:19:46.236Z,1.63
2022-11-14T17:22:15.148Z,1.58
2022-11-14T17:24:43.613Z,1.53
2022-11-14T17:27:13.132Z,1.38
2022-11-14T17:29:43.001Z,1.40
2022-11-14T17:32:11.784Z,1.50
2022-11-14T17:34:41.241Z,1.57
2022-11-14T17:37:09.726Z,1.20
2022-11-14T17:39:38.104Z,2.03
2022-11-14T17:42:07.405Z,1.55
2022-11-14T17:44:35.777Z,1.80
2022-11-14T17:47:05.746Z,1.23
2022-11-14T17:49:34.185Z,1.42
2022-11-14T17:52:02.653Z,1.17
2022-11-14T17:54:31.035Z,1.02
2022-11-14T17:57:00.042Z,1.48
2022-11-14T17:59:28.418Z,1.27
2022-11-14T18:01:59.921Z,1.30
2022-11-14T18:04:31.208Z,1.27
2022-11-14T18:06:59.665Z,1.02
2022-11-14T18:09:29.508Z,1.40
2022-11-14T18:11:57.850Z,1.10
2022-11-14T18:14:26.996Z,1.08
2022-11-14T18:17:12.419Z,1.20
2022-11-14T18:19:45.248Z,1.30
2022-11-14T18:22:13.880Z,1.20
2022-11-14T18:24:47.359Z,1.20
2022-11-14T18:27:16.843Z,1.50
2022-11-14T18:29:45.130Z,1.15
2022-11-14T18:32:13.606Z,1.05
2022-11-14T18:34:42.292Z,1.40
2022-11-14T18:37:12.106Z,1.10
2022-11-14T18:39:40.536Z,1.52
2022-11-14T18:42:09.018Z,1.00
2022-11-14T18:44:37.497Z,1.38
2022-11-14T18:47:06.241Z,1.80
2022-11-14T18:49:34.763Z,1.30
2022-11-14T18:52:10.169Z,1.65
2022-11-14T18:54:42.690Z,1.27
2022-11-14T18:57:11.297Z,1.42
2022-11-14T18:59:39.709Z,1.45
2022-11-14T19:02:09.600Z,1.48
2022-11-14T19:04:37.954Z,1.52
2022-11-14T19:07:06.734Z,1.83
2022-11-14T19:09:35.238Z,1.48
2022-11-14T19:12:22.122Z,1.47
2022-11-14T19:14:53.028Z,1.77
2022-11-14T19:17:22.860Z,1.70
2022-11-14T19:19:53.586Z,1.60
2022-11-14T19:22:22.463Z,2.63
2022-11-14T19:24:50.849Z,1.60
2022-11-14T19:27:22.149Z,2.20
2022-11-14T19:29:51.139Z,1.70
2022-11-14T19:32:19.729Z,2.03
2022-11-14T19:34:48.261Z,2.20
2022-11-14T19:37:16.681Z,1.70
2022-11-14T19:39:45.569Z,2.00
2022-11-14T19:42:14.108Z,1.77
2022-11-14T19:44:44.065Z,2.30
2022-11-14T19:47:12.563Z,2.10
2022-11-14T19:49:40.998Z,1.83
2022-11-14T19:52:10.090Z,2.08
2022-11-14T19:54:38.518Z,2.75
2022-11-14T19:57:06.905Z,1.97
2022-11-14T19:59:35.384Z,2.25
2022-11-14T20:02:05.324Z,2.30
2022-11-14T20:04:37.805Z,1.77
2022-11-14T20:07:06.730Z,1.85
2022-11-14T20:09:35.196Z,2.10
2022-11-14T20:12:03.734Z,2.22
2022-11-14T20:14:32.220Z,2.47
2022-11-14T20:17:01.103Z,2.33
2022-11-14T20:19:31.212Z,2.20
2022-11-14T20:21:59.666Z,2.47
2022-11-14T20:24:28.445Z,1.95
2022-11-14T20:26:56.898Z,2.88
2022-11-14T20:29:25.259Z,2.47
2022-11-14T20:31:53.688Z,2.20
2022-11-14T20:34:22.314Z,2.00
2022-11-14T20:39:41.007Z,3.08
2022-11-14T20:42:09.583Z,4.05
2022-11-14T20:44:38.014Z,3.65
2022-11-14T20:47:10.823Z,3.22
2022-11-14T20:49:40.102Z,3.42
2022-11-14T20:52:09.760Z,2.90
2022-11-14T20:54:38.277Z,3.53
2022-11-14T20:57:06.961Z,2.70
2022-11-14T20:59:35.574Z,3.10
2022-11-14T21:02:03.906Z,2.90
2022-11-14T21:04:32.554Z,3.15
2022-11-14T21:07:02.636Z,3.22
2022-11-14T21:09:32.904Z,3.35
2022-11-14T21:12:01.239Z,2.97
2022-11-14T21:14:29.671Z,3.10
2022-11-14T21:16:58.216Z,3.38
2022-11-14T21:19:26.824Z,3.20
2022-11-14T21:21:55.170Z,3.35
2022-11-14T21:24:23.976Z,2.70
2022-11-14T21:26:53.778Z,2.67
2022-11-14T21:29:22.218Z,3.00
2022-11-14T21:31:50.657Z,2.45
2022-11-14T21:34:19.190Z,3.08
2022-11-14T21:36:48.585Z,2.28
2022-11-14T21:39:17.502Z,2.75
2022-11-14T21:41:48.580Z,2.80
2022-11-14T21:44:19.145Z,2.70
2022-11-14T21:46:48.807Z,2.42
2022-11-14T21:49:17.781Z,2.28
2022-11-14T21:51:47.295Z,2.53
2022-11-14T21:54:15.725Z,2.65
2022-11-14T21:56:44.069Z,2.70
2022-11-14T21:59:16.670Z,2.35
2022-11-14T22:02:05.337Z,2.42
2022-11-14T22:04:34.760Z,2.37
2022-11-14T22:07:05.295Z,3.13
2022-11-14T22:09:33.769Z,2.27
2022-11-14T22:12:02.353Z,3.28
2022-11-14T22:14:30.790Z,2.88
2022-11-14T22:17:01.263Z,2.92
2022-11-14T22:19:29.683Z,2.70
2022-11-14T22:21:58.069Z,2.78
2022-11-14T22:24:26.761Z,2.78
2022-11-14T22:26:55.326Z,2.70
2022-11-14T22:29:23.818Z,3.22
2022-11-14T22:31:55.474Z,3.20
2022-11-14T22:34:25.395Z,2.50
2022-11-14T22:36:53.879Z,2.13
2022-11-14T22:39:22.158Z,2.78
2022-11-14T22:41:50.643Z,2.15
2022-11-14T22:44:19.010Z,2.70
2022-11-14T22:46:48.160Z,2.55
2022-11-14T22:49:20.788Z,3.20
2022-11-14T22:51:51.158Z,2.92
2022-11-14T22:54:21.290Z,2.63
2022-11-14T22:56:51.354Z,2.65
2022-11-14T22:59:19.947Z,3.03
2022-11-14T23:01:48.367Z,3.50
2022-11-14T23:04:16.845Z,2.78
2022-11-14T23:06:45.648Z,2.92
2022-11-14T23:09:15.505Z,3.30
2022-11-14T23:11:43.843Z,2.70
2022-11-14T23:14:14.320Z,2.33
2022-11-14T23:16:42.817Z,2.42
2022-11-14T23:19:11.854Z,2.58
2022-11-14T23:21:40.375Z,2.50
2022-11-14T23:24:14.192Z,2.53
2022-11-14T23:26:44.249Z,2.30
2022-11-14T23:29:15.145Z,2.08
2022-11-14T23:31:43.725Z,1.95
2022-11-14T23:34:12.314Z,2.30
2022-11-14T23:36:40.748Z,2.38
2022-11-14T23:39:09.319Z,1.93
2022-11-14T23:41:37.762Z,2.00
2022-11-14T23:44:07.778Z,1.98
2022-11-14T23:46:36.264Z,2.28
2022-11-14T23:49:04.747Z,2.65
2022-11-14T23:51:33.939Z,2.53
2022-11-14T23:54:02.730Z,2.20
2022-11-14T23:56:31.267Z,2.40
2022-11-14T23:59:00.156Z,2.30
